createdAt,value
2022-11-05T13:56:26.832Z,50.46
2022-11-05T13:59:03.712Z,49.78
2022-11-05T14:01:42.581Z,50.33
2022-11-05T14:04:14.780Z,50.68
2022-11-05T14:06:41.831Z,49.75
2022-11-05T14:09:10.319Z,49.04
2022-11-05T14:11:40.642Z,49.59
2022-11-05T14:14:08.871Z,49.60
2022-11-05T14:16:48.132Z,48.74
2022-11-05T14:19:29.662Z,48.90
2022-11-05T14:21:56.953Z,49.57
2022-11-05T14:24:41.701Z,49.55
2022-11-05T14:27:48.192Z,48.38
2022-11-05T14:30:41.648Z,42.38
2022-11-05T14:33:17.250Z,43.99
2022-11-05T14:35:46.610Z,47.60
2022-11-05T14:38:22.491Z,47.85
2022-11-05T14:40:49.773Z,49.47
2022-11-05T14:43:20.773Z,49.58
2022-11-05T14:45:57.074Z,49.27
2022-11-05T14:48:30.190Z,49.82
2022-11-05T14:50:57.674Z,49.84
2022-11-05T14:53:26.849Z,48.63
2022-11-05T14:55:58.694Z,46.17
2022-11-05T14:58:33.285Z,46.37
2022-11-05T15:01:02.079Z,47.68
2022-11-05T15:03:59.755Z,48.63
2022-11-05T15:06:28.809Z,47.57
2022-11-05T15:09:18.628Z,50.13
2022-11-05T15:11:58.807Z,50.81
2022-11-05T15:14:28.067Z,50.61
2022-11-05T15:17:09.238Z,50.94
2022-11-05T15:19:36.343Z,51.77
2022-11-05T15:22:05.731Z,52.68
2022-11-05T15:24:33.533Z,53.10
2022-11-05T15:27:04.448Z,52.27
2022-11-05T15:29:31.629Z,53.09
2022-11-05T15:32:00.151Z,52.63
2022-11-05T15:34:28.607Z,52.72
2022-11-05T15:36:57.034Z,53.68
2022-11-05T15:39:30.138Z,50.33
2022-11-05T15:41:57.922Z,52.50
2022-11-05T15:44:26.849Z,53.55
2022-11-05T15:47:15.291Z,54.85
2022-11-05T15:49:43.031Z,56.55
2022-11-05T15:52:14.949Z,56.08
2022-11-05T15:54:42.335Z,56.54
2022-11-05T15:57:22.545Z,57.38
2022-11-05T15:59:49.881Z,58.13
